Terminal Aerodrome Forecast
Issued by NWS

Current Version | Previous Version | Text Only | Print | Product List | Glossary On
Versions: 1 2 3 4 5 6 7 8 9 10 11 12 13 14 15 16 17 18 19 20 21 22 23 24 25 26
000
FTUS42 KGSP 260531
TAFHKY
TAF
KHKY 260531Z 2606/2706 19006KT P6SM SCT050 OVC250
     FM260900 19004KT P6SM OVC024
     FM261100 19004KT P6SM OVC015
      TEMPO 2611/2614 OVC008
     FM261400 20004KT P6SM OVC022
     FM261600 21006KT P6SM OVC050 PROB30 2616/2622 4SM TSRA OVC040CB
     FM262200 21006KT P6SM BKN060 PROB30 2622/2704 4SM TSRA
      BKN040CB=

USA.gov is the U.S. government's official web portal to all federal, state and local government web resources and services.